MSC Lisbon — A8LL9 — position and weather

sailwx.info

Track history (hours):
 
Tides and Currents Weather Stations Pressure Air Temp Water Temp Dewpoint Dewpoint Depression Visibility Wind Speed Wind Dir Waves Ship Positions

MSC Lisbon

Last reported at 2015-Jul-30 19:32 UTC. Time now 2015-Jul-30 20:15 UTC.
Position N 37°56' W 008°51'.

Length 336.7 m; beam 45.6 m; draft 15.3 m.

Type: Ship (hazmat cat A). MMSI: 636091276.

Date/timePositionNaut miles runAvg speedWind from/ knotsBaromVisibWave heightAir tempDewpointWater temp
2015-Jul-30 19:32N 37°56' W 008°51'0 0.0
2015-Jul-30 18:32N 37°56' W 008°51'0 0.0
2015-Jul-30 17:32N 37°56' W 008°51'0 0.0
2015-Jul-30 16:33N 37°56' W 008°51'2 1.6
2015-Jul-30 15:33N 37°54' W 008°52'3 3.4
2015-Jul-30 14:33N 37°52' W 008°55'1514.9
2015-Jul-30 13:33N 37°38' W 009°00'1616.0
2015-Jul-30 12:32N 37°23' W 009°09'1120.7
2015-Jul-30 12:00N 37°12' W 009°12'612.0 300 / 61014.0 0.5 0.523.821.218.0
2015-Jul-30 11:31N 37°08' W 009°17'3913.0
2015-Jul-30 08:33N 36°39' W 008°46'6415.8
2015-Jul-30 04:31N 36°18' W 007°31'1616.2
2015-Jul-30 03:32N 36°13' W 007°12'2315.8
2015-Jul-30 02:04N 36°05' W 006°45'4015.6
2015-Jul-29 23:31N 35°59' W 005°56'16814.6
2015-Jul-29 12:00N 36°18' W 002°30'1215.0 250 / 21011.0 5.4 30.024.627.7
2015-Jul-29 11:10N 36°25' W 002°17'914.9
2015-Jul-29 10:33N 36°29' W 002°07'3315.0
2015-Jul-29 08:21N 36°50' W 001°36'1415.1
2015-Jul-29 07:26N 36°60' W 001°23'1415.3
2015-Jul-29 06:33N 37°08' W 001°10'1716.9
2015-Jul-29 05:33N 37°20' W 000°54'1515.2
2015-Jul-29 04:33N 37°30' W 000°40'1514.8
2015-Jul-29 03:33N 37°41' W 000°28'1515.0
2015-Jul-29 02:33N 37°53' W 000°18'1515.0
2015-Jul-29 01:33N 38°06' W 000°07'1614.7
2015-Jul-29 00:30N 38°19' E 000°03'510.5
2015-Jul-29 00:00N 38°24' E 000°06'919.9 190 / 81012.0 5.4 27.524.128.2
2015-Jul-28 23:32N 38°32' E 000°12'1414.5
2015-Jul-28 22:33N 38°43' E 000°23'1414.4
2015-Jul-28 21:33N 38°57' E 000°22'4214.0
2015-Jul-28 18:33N 39°26' W 000°18'1 1.4
2015-Jul-28 17:32N 39°26' W 000°20'0 0.0
2015-Jul-28 16:32N 39°26' W 000°20'0 0.0
2015-Jul-28 15:32N 39°26' W 000°20'0 0.0
2015-Jul-28 14:32N 39°26' W 000°20'0 0.0
2015-Jul-28 13:31N 39°26' W 000°20'0 0.0
2015-Jul-28 12:31N 39°26' W 000°20'0 0.0
2015-Jul-28 11:31N 39°26' W 000°20'0 0.0
2015-Jul-28 10:31N 39°26' W 000°20'0 0.0
2015-Jul-28 09:31N 39°26' W 000°20'0 0.0
2015-Jul-28 08:31N 39°26' W 000°20'0 0.0
2015-Jul-28 07:31N 39°26' W 000°20'0 0.0
2015-Jul-28 06:25N 39°26' W 000°20'0 0.0
2015-Jul-28 05:31N 39°26' W 000°20'0 0.0
2015-Jul-28 04:31N 39°26' W 000°20'0 0.0
2015-Jul-28 03:31N 39°26' W 000°20'0 0.0
2015-Jul-28 02:31N 39°26' W 000°20'0 0.0
2015-Jul-28 01:31N 39°26' W 000°20'0 0.0
2015-Jul-28 00:31N 39°26' W 000°20'0 0.0
2015-Jul-27 23:31N 39°26' W 000°20'3 2.8
2015-Jul-27 22:33N 39°25' W 000°16'3 3.5
2015-Jul-27 21:33N 39°25' W 000°12'5418.1
2015-Jul-27 18:33N 39°19' E 000°58'1918.6
2015-Jul-27 17:33N 39°17' E 001°22'1918.9
2015-Jul-27 16:33N 39°13' E 001°46'1918.6
2015-Jul-27 15:33N 39°08' E 002°09'1919.0
2015-Jul-27 14:33N 39°02' E 002°32'1918.7
2015-Jul-27 13:33N 38°55' E 002°54'1918.7
2015-Jul-27 12:33N 38°51' E 003°18'1018.1
2015-Jul-27 12:00N 38°48' E 003°30'920.0 210 / 121012.510.8 0.529.023.827.9
2015-Jul-27 11:34N 38°47' E 003°41'2119.3
2015-Jul-27 10:29N 38°42' E 004°07'1819.1
2015-Jul-27 09:33N 38°39' E 004°29'1918.8
2015-Jul-27 08:33N 38°35' E 004°53'7418.3
2015-Jul-27 04:30N 38°20' E 006°25'8218.1
2015-Jul-27 00:00N 38°00' E 008°06'4917.7 250 / 71012.0 5.4 26.018.626.9
2015-Jul-26 21:13N 37°53' E 009°08'1217.5
2015-Jul-26 20:31N 37°50' E 009°23'2017.1
2015-Jul-26 19:22N 37°46' E 009°47'1416.8
2015-Jul-26 18:33N 37°43' E 010°04'3817.0
2015-Jul-26 16:20N 37°33' E 010°50'3117.3
2015-Jul-26 14:33N 37°21' E 011°25'1817.9
2015-Jul-26 13:33N 37°10' E 011°43'1717.4
2015-Jul-26 12:33N 36°59' E 012°01'712.2
2015-Jul-26 12:00N 36°54' E 012°06'1125.6 290 / 211013.0 5.4 1.028.523.025.6
2015-Jul-26 11:33N 36°52' E 012°20'1717.2
2015-Jul-26 10:34N 36°45' E 012°40'1817.6
2015-Jul-26 09:33N 36°36' E 012°58'1717.5
2015-Jul-26 08:33N 36°30' E 013°19'1817.5
2015-Jul-26 07:33N 36°25' E 013°40'1818.1
2015-Jul-26 06:33N 36°21' E 014°02'1918.6
2015-Jul-26 05:33N 36°17' E 014°24'1817.7
2015-Jul-26 04:33N 36°13' E 014°46'1818.0
2015-Jul-26 03:34N 36°09' E 015°07'3718.1
2015-Jul-26 01:31N 36°01' E 015°52'1718.1
2015-Jul-26 00:33N 35°57' E 016°13'917.0
2015-Jul-26 00:00N 35°54' E 016°24'919.0 300 / 121010.0 5.4 28.023.228.7
2015-Jul-25 23:30N 35°53' E 016°35'1817.8
2015-Jul-25 22:30N 35°49' E 016°57'18417.5
2015-Jul-25 12:00N 35°06' E 020°36'21718.1 270 / 141010.5 5.4 0.530.023.128.3
2015-Jul-25 00:00N 34°18' E 024°54'35918.5 270 / 101009.0 5.4 26.021.827.1
2015-Jul-24 04:33N 33°20' E 032°00'1918.5
2015-Jul-24 03:33N 33°16' E 032°22'1918.7
2015-Jul-24 02:33N 33°13' E 032°44'1918.5
2015-Jul-24 01:33N 33°10' E 033°06'1818.4
2015-Jul-24 00:33N 33°07' E 033°28'1818.4
2015-Jul-23 23:33N 33°04' E 033°49'1818.3
2015-Jul-23 22:34N 33°01' E 034°11'1818.4
2015-Jul-23 21:33N 32°57' E 034°32'2018.5
2015-Jul-23 20:28N 32°53' E 034°56'5 1.7
2015-Jul-23 17:11N 32°49' E 035°01'0 0.0
2015-Jul-23 16:32N 32°49' E 035°01'0 0.0
2015-Jul-23 14:32N 32°49' E 035°01'0 0.0
2015-Jul-23 13:20N 32°49' E 035°01'0 0.0
2015-Jul-23 12:29N 32°49' E 035°01'0 0.0
2015-Jul-23 11:29N 32°49' E 035°01'0 0.0
2015-Jul-23 10:32N 32°49' E 035°01'0 0.0
2015-Jul-23 08:32N 32°49' E 035°01'0 0.0
2015-Jul-23 07:29N 32°49' E 035°01'0 0.0
2015-Jul-23 05:08N 32°49' E 035°01'0 0.0
2015-Jul-23 04:32N 32°49' E 035°01'0 0.2
2015-Jul-23 03:33N 32°49' E 035°01'3 2.5
2015-Jul-23 02:33N 32°52' E 034°59'10 9.8
2015-Jul-23 01:32N 32°54' E 034°48'1717.1
2015-Jul-23 00:34N 32°58' E 034°28'2019.8
2015-Jul-22 23:34N 33°01' E 034°05'1918.8
2015-Jul-22 22:34N 32°50' E 033°48'2020.2
2015-Jul-22 21:34N 32°34' E 033°32'2120.6
2015-Jul-22 20:34N 32°18' E 033°17'2019.6
2015-Jul-22 19:33N 32°03' E 033°01'2019.7
2015-Jul-22 18:33N 31°48' E 032°47'2020.2
2015-Jul-22 17:34N 31°37' E 032°27'1918.9
2015-Jul-22 16:33N 31°19' E 032°22'2010.0
2015-Jul-22 14:33N 30°59' E 032°19'10 9.6
2015-Jul-22 13:33N 30°49' E 032°19'10 9.8
2015-Jul-22 12:33N 30°40' E 032°20'51 7.9
2015-Jul-22 06:07N 29°50' E 032°35'90 5.0
2015-Jul-21 12:00N 28°24' E 033°06'   340 / 201003.0 5.4 1.029.017.926.0
Track history (hours):
 
Tides and Currents Weather Stations Pressure Air Temp Water Temp Dewpoint Dewpoint Depression Visibility Wind Speed Wind Dir Waves Ship Positions

MSC Lisbon

Last reported at 2015-Jul-30 19:32 UTC. Time now 2015-Jul-30 20:15 UTC.
Position N 37°56' W 008°51'.

Length 336.7 m; beam 45.6 m; draft 15.3 m.

Type: Ship (hazmat cat A). MMSI: 636091276.

Date/timePositionNaut miles runAvg speedWind from/ knotsBaromVisibWave heightAir tempDewpointWater temp
2015-Jul-30 19:32N 37°56' W 008°51'0 0.0
2015-Jul-30 18:32N 37°56' W 008°51'0 0.0
2015-Jul-30 17:32N 37°56' W 008°51'0 0.0
2015-Jul-30 16:33N 37°56' W 008°51'2 1.6
2015-Jul-30 15:33N 37°54' W 008°52'3 3.4
2015-Jul-30 14:33N 37°52' W 008°55'1514.9
2015-Jul-30 13:33N 37°38' W 009°00'1616.0
2015-Jul-30 12:32N 37°23' W 009°09'1120.7
2015-Jul-30 12:00N 37°12' W 009°12'612.0 300 / 61014.0 0.5 0.523.821.218.0
2015-Jul-30 11:31N 37°08' W 009°17'3913.0
2015-Jul-30 08:33N 36°39' W 008°46'6415.8
2015-Jul-30 04:31N 36°18' W 007°31'1616.2
2015-Jul-30 03:32N 36°13' W 007°12'2315.8
2015-Jul-30 02:04N 36°05' W 006°45'4015.6
2015-Jul-29 23:31N 35°59' W 005°56'16814.6
2015-Jul-29 12:00N 36°18' W 002°30'1215.0 250 / 21011.0 5.4 30.024.627.7
2015-Jul-29 11:10N 36°25' W 002°17'914.9
2015-Jul-29 10:33N 36°29' W 002°07'3315.0
2015-Jul-29 08:21N 36°50' W 001°36'1415.1
2015-Jul-29 07:26N 36°60' W 001°23'1415.3
2015-Jul-29 06:33N 37°08' W 001°10'1716.9
2015-Jul-29 05:33N 37°20' W 000°54'1515.2
2015-Jul-29 04:33N 37°30' W 000°40'1514.8
2015-Jul-29 03:33N 37°41' W 000°28'1515.0
2015-Jul-29 02:33N 37°53' W 000°18'1515.0
2015-Jul-29 01:33N 38°06' W 000°07'1614.7
2015-Jul-29 00:30N 38°19' E 000°03'510.5
2015-Jul-29 00:00N 38°24' E 000°06'919.9 190 / 81012.0 5.4 27.524.128.2
2015-Jul-28 23:32N 38°32' E 000°12'1414.5
2015-Jul-28 22:33N 38°43' E 000°23'1414.4
2015-Jul-28 21:33N 38°57' E 000°22'4214.0
2015-Jul-28 18:33N 39°26' W 000°18'1 1.4
2015-Jul-28 17:32N 39°26' W 000°20'0 0.0
2015-Jul-28 16:32N 39°26' W 000°20'0 0.0
2015-Jul-28 15:32N 39°26' W 000°20'0 0.0
2015-Jul-28 14:32N 39°26' W 000°20'0 0.0
2015-Jul-28 13:31N 39°26' W 000°20'0 0.0
2015-Jul-28 12:31N 39°26' W 000°20'0 0.0
2015-Jul-28 11:31N 39°26' W 000°20'0 0.0
2015-Jul-28 10:31N 39°26' W 000°20'0 0.0
2015-Jul-28 09:31N 39°26' W 000°20'0 0.0
2015-Jul-28 08:31N 39°26' W 000°20'0 0.0
2015-Jul-28 07:31N 39°26' W 000°20'0 0.0
2015-Jul-28 06:25N 39°26' W 000°20'0 0.0
2015-Jul-28 05:31N 39°26' W 000°20'0 0.0
2015-Jul-28 04:31N 39°26' W 000°20'0 0.0
2015-Jul-28 03:31N 39°26' W 000°20'0 0.0
2015-Jul-28 02:31N 39°26' W 000°20'0 0.0
2015-Jul-28 01:31N 39°26' W 000°20'0 0.0
2015-Jul-28 00:31N 39°26' W 000°20'0 0.0
2015-Jul-27 23:31N 39°26' W 000°20'3 2.8
2015-Jul-27 22:33N 39°25' W 000°16'3 3.5
2015-Jul-27 21:33N 39°25' W 000°12'5418.1
2015-Jul-27 18:33N 39°19' E 000°58'1918.6
2015-Jul-27 17:33N 39°17' E 001°22'1918.9
2015-Jul-27 16:33N 39°13' E 001°46'1918.6
2015-Jul-27 15:33N 39°08' E 002°09'1919.0
2015-Jul-27 14:33N 39°02' E 002°32'1918.7
2015-Jul-27 13:33N 38°55' E 002°54'1918.7
2015-Jul-27 12:33N 38°51' E 003°18'1018.1
2015-Jul-27 12:00N 38°48' E 003°30'920.0 210 / 121012.510.8 0.529.023.827.9
2015-Jul-27 11:34N 38°47' E 003°41'2119.3
2015-Jul-27 10:29N 38°42' E 004°07'1819.1
2015-Jul-27 09:33N 38°39' E 004°29'1918.8
2015-Jul-27 08:33N 38°35' E 004°53'7418.3
2015-Jul-27 04:30N 38°20' E 006°25'8218.1
2015-Jul-27 00:00N 38°00' E 008°06'4917.7 250 / 71012.0 5.4 26.018.626.9
2015-Jul-26 21:13N 37°53' E 009°08'1217.5
2015-Jul-26 20:31N 37°50' E 009°23'2017.1
2015-Jul-26 19:22N 37°46' E 009°47'1416.8
2015-Jul-26 18:33N 37°43' E 010°04'3817.0
2015-Jul-26 16:20N 37°33' E 010°50'3117.3
2015-Jul-26 14:33N 37°21' E 011°25'1817.9
2015-Jul-26 13:33N 37°10' E 011°43'1717.4
2015-Jul-26 12:33N 36°59' E 012°01'712.2
2015-Jul-26 12:00N 36°54' E 012°06'1125.6 290 / 211013.0 5.4 1.028.523.025.6
2015-Jul-26 11:33N 36°52' E 012°20'1717.2
2015-Jul-26 10:34N 36°45' E 012°40'1817.6
2015-Jul-26 09:33N 36°36' E 012°58'1717.5
2015-Jul-26 08:33N 36°30' E 013°19'1817.5
2015-Jul-26 07:33N 36°25' E 013°40'1818.1
2015-Jul-26 06:33N 36°21' E 014°02'1918.6
2015-Jul-26 05:33N 36°17' E 014°24'1817.7
2015-Jul-26 04:33N 36°13' E 014°46'1818.0
2015-Jul-26 03:34N 36°09' E 015°07'3718.1
2015-Jul-26 01:31N 36°01' E 015°52'1718.1
2015-Jul-26 00:33N 35°57' E 016°13'917.0
2015-Jul-26 00:00N 35°54' E 016°24'919.0 300 / 121010.0 5.4 28.023.228.7
2015-Jul-25 23:30N 35°53' E 016°35'1817.8
2015-Jul-25 22:30N 35°49' E 016°57'18417.5
2015-Jul-25 12:00N 35°06' E 020°36'21718.1 270 / 141010.5 5.4 0.530.023.128.3
2015-Jul-25 00:00N 34°18' E 024°54'35918.5 270 / 101009.0 5.4 26.021.827.1
2015-Jul-24 04:33N 33°20' E 032°00'1918.5
2015-Jul-24 03:33N 33°16' E 032°22'1918.7
2015-Jul-24 02:33N 33°13' E 032°44'1918.5
2015-Jul-24 01:33N 33°10' E 033°06'1818.4
2015-Jul-24 00:33N 33°07' E 033°28'1818.4
2015-Jul-23 23:33N 33°04' E 033°49'1818.3
2015-Jul-23 22:34N 33°01' E 034°11'1818.4
2015-Jul-23 21:33N 32°57' E 034°32'2018.5
2015-Jul-23 20:28N 32°53' E 034°56'5 1.7
2015-Jul-23 17:11N 32°49' E 035°01'0 0.0
2015-Jul-23 16:32N 32°49' E 035°01'0 0.0
2015-Jul-23 14:32N 32°49' E 035°01'0 0.0
2015-Jul-23 13:20N 32°49' E 035°01'0 0.0
2015-Jul-23 12:29N 32°49' E 035°01'0 0.0
2015-Jul-23 11:29N 32°49' E 035°01'0 0.0
2015-Jul-23 10:32N 32°49' E 035°01'0 0.0
2015-Jul-23 08:32N 32°49' E 035°01'0 0.0
2015-Jul-23 07:29N 32°49' E 035°01'0 0.0
2015-Jul-23 05:08N 32°49' E 035°01'0 0.0
2015-Jul-23 04:32N 32°49' E 035°01'0 0.2
2015-Jul-23 03:33N 32°49' E 035°01'3 2.5
2015-Jul-23 02:33N 32°52' E 034°59'10 9.8
2015-Jul-23 01:32N 32°54' E 034°48'1717.1
2015-Jul-23 00:34N 32°58' E 034°28'2019.8
2015-Jul-22 23:34N 33°01' E 034°05'1918.8
2015-Jul-22 22:34N 32°50' E 033°48'2020.2
2015-Jul-22 21:34N 32°34' E 033°32'2120.6
2015-Jul-22 20:34N 32°18' E 033°17'2019.6
2015-Jul-22 19:33N 32°03' E 033°01'2019.7
2015-Jul-22 18:33N 31°48' E 032°47'2020.2
2015-Jul-22 17:34N 31°37' E 032°27'1918.9
2015-Jul-22 16:33N 31°19' E 032°22'2010.0
2015-Jul-22 14:33N 30°59' E 032°19'10 9.6
2015-Jul-22 13:33N 30°49' E 032°19'10 9.8
2015-Jul-22 12:33N 30°40' E 032°20'51 7.9
2015-Jul-22 06:07N 29°50' E 032°35'90 5.0
2015-Jul-21 12:00N 28°24' E 033°06'   340 / 201003.0 5.4 1.029.017.926.0

Dump ship's entire track history